sensor_id;sensor_type;location;lat;lon;timestamp;P1;durP1;ratioP1;P2;durP2;ratioP2
28166;SDS011;15455;53.376;-6.262;2023-05-15T00:02:44;4.72;;;0.88;;
28166;SDS011;15455;53.376;-6.262;2023-05-15T00:05:30;4.43;;;1.30;;
28166;SDS011;15455;53.376;-6.262;2023-05-15T00:08:17;4.45;;;1.20;;
28166;SDS011;15455;53.376;-6.262;2023-05-15T00:11:02;3.30;;;0.93;;
28166;SDS011;15455;53.376;-6.262;2023-05-15T00:13:48;11.32;;;1.45;;
28166;SDS011;15455;53.376;-6.262;2023-05-15T00:16:34;5.95;;;1.33;;
28166;SDS011;15455;53.376;-6.262;2023-05-15T00:19:20;3.47;;;1.23;;
28166;SDS011;15455;53.376;-6.262;2023-05-15T00:22:06;10.07;;;1.50;;
28166;SDS011;15455;53.376;-6.262;2023-05-15T00:24:52;10.57;;;1.73;;
28166;SDS011;15455;53.376;-6.262;2023-05-15T00:27:38;3.67;;;1.10;;
28166;SDS011;15455;53.376;-6.262;2023-05-15T00:30:23;4.45;;;1.30;;
28166;SDS011;15455;53.376;-6.262;2023-05-15T00:33:09;7.72;;;1.48;;
28166;SDS011;15455;53.376;-6.262;2023-05-15T00:35:54;2.63;;;1.08;;
28166;SDS011;15455;53.376;-6.262;2023-05-15T00:38:40;8.02;;;1.40;;
28166;SDS011;15455;53.376;-6.262;2023-05-15T00:41:26;4.85;;;1.33;;
28166;SDS011;15455;53.376;-6.262;2023-05-15T00:44:14;5.47;;;1.50;;
28166;SDS011;15455;53.376;-6.262;2023-05-15T00:47:01;6.30;;;0.98;;
28166;SDS011;15455;53.376;-6.262;2023-05-15T00:49:48;8.68;;;0.85;;
28166;SDS011;15455;53.376;-6.262;2023-05-15T00:52:36;7.57;;;1.10;;
28166;SDS011;15455;53.376;-6.262;2023-05-15T00:55:22;10.73;;;1.25;;
28166;SDS011;15455;53.376;-6.262;2023-05-15T00:58:10;3.65;;;1.27;;
28166;SDS011;15455;53.376;-6.262;2023-05-15T01:00:58;2.13;;;0.77;;
28166;SDS011;15455;53.376;-6.262;2023-05-15T01:03:44;3.20;;;0.95;;
28166;SDS011;15455;53.376;-6.262;2023-05-15T01:06:30;10.05;;;1.13;;
28166;SDS011;15455;53.376;-6.262;2023-05-15T01:09:17;4.03;;;1.00;;
28166;SDS011;15455;53.376;-6.262;2023-05-15T01:12:05;8.52;;;1.15;;
28166;SDS011;15455;53.376;-6.262;2023-05-15T01:14:52;5.65;;;0.93;;
28166;SDS011;15455;53.376;-6.262;2023-05-15T01:17:38;6.55;;;1.10;;
28166;SDS011;15455;53.376;-6.262;2023-05-15T01:20:25;7.90;;;1.35;;
28166;SDS011;15455;53.376;-6.262;2023-05-15T01:23:14;6.60;;;1.25;;
28166;SDS011;15455;53.376;-6.262;2023-05-15T01:29:23;5.03;;;1.38;;
28166;SDS011;15455;53.376;-6.262;2023-05-15T01:32:12;6.75;;;0.98;;
28166;SDS011;15455;53.376;-6.262;2023-05-15T01:38:18;5.45;;;1.10;;
28166;SDS011;15455;53.376;-6.262;2023-05-15T01:41:05;5.03;;;1.25;;
28166;SDS011;15455;53.376;-6.262;2023-05-15T01:44:07;3.20;;;1.30;;
28166;SDS011;15455;53.376;-6.262;2023-05-15T01:47:00;9.43;;;1.50;;
28166;SDS011;15455;53.376;-6.262;2023-05-15T01:49:51;2.92;;;0.93;;
28166;SDS011;15455;53.376;-6.262;2023-05-15T01:52:39;3.28;;;1.27;;
28166;SDS011;15455;53.376;-6.262;2023-05-15T01:55:28;13.90;;;1.73;;
28166;SDS011;15455;53.376;-6.262;2023-05-15T01:58:14;5.75;;;1.25;;
28166;SDS011;15455;53.376;-6.262;2023-05-15T02:01:00;8.85;;;1.10;;
28166;SDS011;15455;53.376;-6.262;2023-05-15T02:03:46;2.55;;;1.33;;
28166;SDS011;15455;53.376;-6.262;2023-05-15T02:06:32;4.07;;;1.08;;
28166;SDS011;15455;53.376;-6.262;2023-05-15T02:09:19;9.38;;;1.45;;
28166;SDS011;15455;53.376;-6.262;2023-05-15T02:12:04;6.25;;;1.27;;
28166;SDS011;15455;53.376;-6.262;2023-05-15T02:14:52;4.65;;;1.10;;
28166;SDS011;15455;53.376;-6.262;2023-05-15T02:17:39;6.22;;;1.63;;
28166;SDS011;15455;53.376;-6.262;2023-05-15T02:20:25;15.55;;;1.15;;
28166;SDS011;15455;53.376;-6.262;2023-05-15T02:23:11;8.93;;;1.20;;
28166;SDS011;15455;53.376;-6.262;2023-05-15T02:26:05;3.95;;;0.95;;
28166;SDS011;15455;53.376;-6.262;2023-05-15T02:35:35;5.15;;;1.00;;
28166;SDS011;15455;53.376;-6.262;2023-05-15T02:38:48;7.28;;;1.63;;
28166;SDS011;15455;53.376;-6.262;2023-05-15T02:41:33;8.85;;;1.13;;
28166;SDS011;15455;53.376;-6.262;2023-05-15T02:44:20;8.38;;;1.52;;
28166;SDS011;15455;53.376;-6.262;2023-05-15T02:47:07;7.13;;;1.70;;
28166;SDS011;15455;53.376;-6.262;2023-05-15T02:49:53;2.92;;;1.25;;
28166;SDS011;15455;53.376;-6.262;2023-05-15T02:52:39;5.55;;;1.23;;
28166;SDS011;15455;53.376;-6.262;2023-05-15T02:55:24;8.18;;;1.40;;
28166;SDS011;15455;53.376;-6.262;2023-05-15T02:58:10;8.05;;;1.58;;
28166;SDS011;15455;53.376;-6.262;2023-05-15T03:00:56;7.70;;;1.42;;
28166;SDS011;15455;53.376;-6.262;2023-05-15T03:03:41;11.55;;;1.60;;
28166;SDS011;15455;53.376;-6.262;2023-05-15T03:06:27;5.22;;;1.45;;
28166;SDS011;15455;53.376;-6.262;2023-05-15T03:09:12;5.82;;;1.60;;
28166;SDS011;15455;53.376;-6.262;2023-05-15T03:11:58;4.90;;;1.15;;
28166;SDS011;15455;53.376;-6.262;2023-05-15T03:14:43;7.05;;;1.27;;
28166;SDS011;15455;53.376;-6.262;2023-05-15T03:17:28;6.22;;;1.25;;
28166;SDS011;15455;53.376;-6.262;2023-05-15T03:20:14;12.07;;;1.20;;
28166;SDS011;15455;53.376;-6.262;2023-05-15T03:22:59;4.78;;;1.00;;
28166;SDS011;15455;53.376;-6.262;2023-05-15T03:25:45;7.57;;;1.10;;
28166;SDS011;15455;53.376;-6.262;2023-05-15T03:28:31;12.18;;;1.33;;
28166;SDS011;15455;53.376;-6.262;2023-05-15T03:31:16;8.02;;;1.20;;
28166;SDS011;15455;53.376;-6.262;2023-05-15T03:34:02;9.20;;;1.17;;
28166;SDS011;15455;53.376;-6.262;2023-05-15T03:36:48;10.52;;;1.63;;
28166;SDS011;15455;53.376;-6.262;2023-05-15T03:39:33;7.25;;;1.63;;
28166;SDS011;15455;53.376;-6.262;2023-05-15T03:42:18;5.40;;;1.40;;
28166;SDS011;15455;53.376;-6.262;2023-05-15T03:45:07;5.13;;;1.23;;
28166;SDS011;15455;53.376;-6.262;2023-05-15T03:47:53;7.88;;;1.02;;
28166;SDS011;15455;53.376;-6.262;2023-05-15T03:50:38;12.32;;;1.63;;
28166;SDS011;15455;53.376;-6.262;2023-05-15T03:53:24;13.73;;;1.60;;
28166;SDS011;15455;53.376;-6.262;2023-05-15T03:56:10;4.50;;;1.30;;
28166;SDS011;15455;53.376;-6.262;2023-05-15T03:58:55;3.22;;;1.10;;
28166;SDS011;15455;53.376;-6.262;2023-05-15T04:01:40;5.00;;;1.50;;
28166;SDS011;15455;53.376;-6.262;2023-05-15T04:04:46;8.13;;;0.95;;
28166;SDS011;15455;53.376;-6.262;2023-05-15T04:07:31;9.18;;;0.98;;
28166;SDS011;15455;53.376;-6.262;2023-05-15T04:10:18;8.55;;;1.00;;
28166;SDS011;15455;53.376;-6.262;2023-05-15T04:13:04;5.88;;;1.60;;
28166;SDS011;15455;53.376;-6.262;2023-05-15T04:15:49;12.20;;;1.50;;
28166;SDS011;15455;53.376;-6.262;2023-05-15T04:18:35;6.07;;;1.65;;
28166;SDS011;15455;53.376;-6.262;2023-05-15T04:21:21;3.92;;;1.20;;
28166;SDS011;15455;53.376;-6.262;2023-05-15T04:24:06;2.53;;;0.88;;
28166;SDS011;15455;53.376;-6.262;2023-05-15T04:26:52;4.53;;;1.20;;
28166;SDS011;15455;53.376;-6.262;2023-05-15T04:29:37;3.33;;;1.10;;
28166;SDS011;15455;53.376;-6.262;2023-05-15T04:32:23;1.20;;;0.70;;
28166;SDS011;15455;53.376;-6.262;2023-05-15T04:35:08;5.90;;;1.20;;
28166;SDS011;15455;53.376;-6.262;2023-05-15T04:37:56;6.35;;;1.20;;
28166;SDS011;15455;53.376;-6.262;2023-05-15T04:40:42;10.57;;;1.65;;
28166;SDS011;15455;53.376;-6.262;2023-05-15T04:43:28;6.05;;;1.17;;
28166;SDS011;15455;53.376;-6.262;2023-05-15T04:46:13;6.85;;;1.45;;
28166;SDS011;15455;53.376;-6.262;2023-05-15T04:48:59;7.18;;;1.17;;
28166;SDS011;15455;53.376;-6.262;2023-05-15T04:51:44;5.13;;;1.13;;
28166;SDS011;15455;53.376;-6.262;2023-05-15T04:54:30;1.75;;;0.98;;
28166;SDS011;15455;53.376;-6.262;2023-05-15T04:57:15;5.65;;;1.13;;
28166;SDS011;15455;53.376;-6.262;2023-05-15T05:00:01;8.55;;;1.60;;
28166;SDS011;15455;53.376;-6.262;2023-05-15T05:02:51;11.90;;;1.10;;
28166;SDS011;15455;53.376;-6.262;2023-05-15T05:05:36;10.18;;;1.77;;
28166;SDS011;15455;53.376;-6.262;2023-05-15T05:08:22;6.53;;;0.98;;
28166;SDS011;15455;53.376;-6.262;2023-05-15T05:11:07;6.75;;;1.30;;
28166;SDS011;15455;53.376;-6.262;2023-05-15T05:13:53;5.90;;;1.25;;
28166;SDS011;15455;53.376;-6.262;2023-05-15T05:16:39;7.63;;;1.17;;
28166;SDS011;15455;53.376;-6.262;2023-05-15T05:19:25;5.35;;;1.58;;
28166;SDS011;15455;53.376;-6.262;2023-05-15T05:22:12;2.42;;;1.00;;
28166;SDS011;15455;53.376;-6.262;2023-05-15T05:24:57;5.68;;;1.58;;
28166;SDS011;15455;53.376;-6.262;2023-05-15T05:27:43;7.35;;;1.35;;
28166;SDS011;15455;53.376;-6.262;2023-05-15T05:30:28;7.25;;;1.20;;
28166;SDS011;15455;53.376;-6.262;2023-05-15T05:33:14;10.93;;;1.33;;
28166;SDS011;15455;53.376;-6.262;2023-05-15T05:35:59;10.38;;;1.90;;
28166;SDS011;15455;53.376;-6.262;2023-05-15T05:38:45;3.25;;;1.10;;
28166;SDS011;15455;53.376;-6.262;2023-05-15T05:41:30;11.95;;;1.50;;
28166;SDS011;15455;53.376;-6.262;2023-05-15T05:44:15;7.47;;;1.80;;
28166;SDS011;15455;53.376;-6.262;2023-05-15T05:47:01;11.32;;;1.20;;
28166;SDS011;15455;53.376;-6.262;2023-05-15T05:49:46;9.52;;;1.85;;
28166;SDS011;15455;53.376;-6.262;2023-05-15T05:52:32;7.80;;;1.23;;
28166;SDS011;15455;53.376;-6.262;2023-05-15T05:55:18;6.38;;;1.25;;
28166;SDS011;15455;53.376;-6.262;2023-05-15T05:58:04;3.75;;;1.17;;
28166;SDS011;15455;53.376;-6.262;2023-05-15T06:00:58;2.50;;;1.20;;
28166;SDS011;15455;53.376;-6.262;2023-05-15T06:03:45;5.30;;;1.60;;
28166;SDS011;15455;53.376;-6.262;2023-05-15T06:06:30;2.90;;;1.02;;
28166;SDS011;15455;53.376;-6.262;2023-05-15T06:09:16;8.50;;;1.27;;
28166;SDS011;15455;53.376;-6.262;2023-05-15T06:12:02;4.90;;;1.17;;
28166;SDS011;15455;53.376;-6.262;2023-05-15T06:14:48;2.13;;;1.00;;
28166;SDS011;15455;53.376;-6.262;2023-05-15T06:17:34;5.47;;;1.65;;
28166;SDS011;15455;53.376;-6.262;2023-05-15T06:20:20;7.85;;;1.48;;
28166;SDS011;15455;53.376;-6.262;2023-05-15T06:23:07;3.15;;;1.48;;
28166;SDS011;15455;53.376;-6.262;2023-05-15T06:25:52;8.73;;;1.52;;
28166;SDS011;15455;53.376;-6.262;2023-05-15T06:28:38;5.30;;;0.95;;
28166;SDS011;15455;53.376;-6.262;2023-05-15T06:31:23;10.38;;;1.10;;
28166;SDS011;15455;53.376;-6.262;2023-05-15T06:34:09;7.43;;;1.05;;
28166;SDS011;15455;53.376;-6.262;2023-05-15T06:36:55;3.13;;;0.98;;
28166;SDS011;15455;53.376;-6.262;2023-05-15T06:39:40;6.03;;;1.20;;
28166;SDS011;15455;53.376;-6.262;2023-05-15T06:42:26;6.18;;;1.50;;
28166;SDS011;15455;53.376;-6.262;2023-05-15T06:45:11;8.63;;;1.52;;
28166;SDS011;15455;53.376;-6.262;2023-05-15T06:47:57;2.85;;;0.90;;
28166;SDS011;15455;53.376;-6.262;2023-05-15T06:50:45;4.82;;;0.68;;
28166;SDS011;15455;53.376;-6.262;2023-05-15T06:53:31;5.88;;;1.02;;
28166;SDS011;15455;53.376;-6.262;2023-05-15T06:56:16;6.78;;;0.90;;
28166;SDS011;15455;53.376;-6.262;2023-05-15T06:59:02;8.93;;;1.40;;
28166;SDS011;15455;53.376;-6.262;2023-05-15T07:01:47;6.82;;;1.23;;
28166;SDS011;15455;53.376;-6.262;2023-05-15T07:04:32;7.57;;;1.00;;
28166;SDS011;15455;53.376;-6.262;2023-05-15T07:07:18;5.35;;;1.08;;
28166;SDS011;15455;53.376;-6.262;2023-05-15T07:10:03;8.35;;;1.40;;
28166;SDS011;15455;53.376;-6.262;2023-05-15T07:12:49;10.05;;;1.38;;
28166;SDS011;15455;53.376;-6.262;2023-05-15T07:15:35;7.57;;;1.23;;
28166;SDS011;15455;53.376;-6.262;2023-05-15T07:18:20;1.98;;;0.73;;
28166;SDS011;15455;53.376;-6.262;2023-05-15T07:21:06;10.40;;;1.70;;
28166;SDS011;15455;53.376;-6.262;2023-05-15T07:23:51;4.57;;;0.95;;
28166;SDS011;15455;53.376;-6.262;2023-05-15T07:26:36;10.45;;;1.63;;
28166;SDS011;15455;53.376;-6.262;2023-05-15T07:29:41;11.13;;;1.20;;
28166;SDS011;15455;53.376;-6.262;2023-05-15T07:32:27;9.32;;;1.05;;
28166;SDS011;15455;53.376;-6.262;2023-05-15T07:35:12;4.43;;;1.10;;
28166;SDS011;15455;53.376;-6.262;2023-05-15T07:37:58;8.43;;;1.45;;
28166;SDS011;15455;53.376;-6.262;2023-05-15T07:40:43;9.85;;;1.00;;
28166;SDS011;15455;53.376;-6.262;2023-05-15T07:43:28;5.88;;;1.50;;
28166;SDS011;15455;53.376;-6.262;2023-05-15T07:46:14;5.75;;;0.95;;
28166;SDS011;15455;53.376;-6.262;2023-05-15T07:49:00;3.38;;;0.70;;
28166;SDS011;15455;53.376;-6.262;2023-05-15T07:51:45;3.10;;;0.90;;
28166;SDS011;15455;53.376;-6.262;2023-05-15T07:54:30;5.80;;;0.93;;
28166;SDS011;15455;53.376;-6.262;2023-05-15T07:57:16;7.03;;;1.20;;
28166;SDS011;15455;53.376;-6.262;2023-05-15T08:00:02;10.30;;;1.35;;
28166;SDS011;15455;53.376;-6.262;2023-05-15T08:02:58;7.15;;;0.90;;
28166;SDS011;15455;53.376;-6.262;2023-05-15T08:05:44;5.70;;;0.88;;
28166;SDS011;15455;53.376;-6.262;2023-05-15T08:08:30;5.75;;;1.10;;
28166;SDS011;15455;53.376;-6.262;2023-05-15T08:11:15;2.53;;;0.75;;
28166;SDS011;15455;53.376;-6.262;2023-05-15T08:14:00;6.82;;;0.75;;
28166;SDS011;15455;53.376;-6.262;2023-05-15T08:16:48;2.97;;;0.60;;
28166;SDS011;15455;53.376;-6.262;2023-05-15T08:19:33;1.95;;;0.52;;
28166;SDS011;15455;53.376;-6.262;2023-05-15T08:22:19;7.50;;;0.70;;
28166;SDS011;15455;53.376;-6.262;2023-05-15T08:25:05;6.68;;;0.75;;
28166;SDS011;15455;53.376;-6.262;2023-05-15T08:27:51;11.45;;;0.75;;
28166;SDS011;15455;53.376;-6.262;2023-05-15T08:30:37;6.55;;;0.68;;
28166;SDS011;15455;53.376;-6.262;2023-05-15T08:33:22;1.25;;;0.40;;
28166;SDS011;15455;53.376;-6.262;2023-05-15T08:36:08;6.70;;;0.85;;
28166;SDS011;15455;53.376;-6.262;2023-05-15T08:38:53;1.40;;;0.52;;
28166;SDS011;15455;53.376;-6.262;2023-05-15T08:41:46;9.25;;;0.77;;
28166;SDS011;15455;53.376;-6.262;2023-05-15T08:44:38;4.60;;;1.10;;
28166;SDS011;15455;53.376;-6.262;2023-05-15T08:47:28;3.40;;;0.43;;
28166;SDS011;15455;53.376;-6.262;2023-05-15T08:50:19;6.55;;;0.77;;
28166;SDS011;15455;53.376;-6.262;2023-05-15T08:53:06;2.67;;;0.65;;
28166;SDS011;15455;53.376;-6.262;2023-05-15T08:55:52;4.70;;;0.70;;
28166;SDS011;15455;53.376;-6.262;2023-05-15T08:58:38;5.05;;;0.75;;
28166;SDS011;15455;53.376;-6.262;2023-05-15T09:01:24;1.95;;;0.60;;
28166;SDS011;15455;53.376;-6.262;2023-05-15T09:04:10;4.88;;;1.17;;
28166;SDS011;15455;53.376;-6.262;2023-05-15T09:06:55;4.50;;;0.60;;
28166;SDS011;15455;53.376;-6.262;2023-05-15T09:09:43;1.42;;;0.77;;
28166;SDS011;15455;53.376;-6.262;2023-05-15T09:12:31;8.50;;;0.73;;
28166;SDS011;15455;53.376;-6.262;2023-05-15T09:15:19;2.42;;;0.40;;
28166;SDS011;15455;53.376;-6.262;2023-05-15T09:18:09;2.88;;;0.90;;
28166;SDS011;15455;53.376;-6.262;2023-05-15T09:21:02;3.25;;;0.70;;
28166;SDS011;15455;53.376;-6.262;2023-05-15T09:24:21;2.80;;;0.63;;
28166;SDS011;15455;53.376;-6.262;2023-05-15T09:27:08;1.10;;;0.50;;
28166;SDS011;15455;53.376;-6.262;2023-05-15T09:29:55;0.40;;;0.38;;
28166;SDS011;15455;53.376;-6.262;2023-05-15T09:32:54;4.63;;;0.95;;
28166;SDS011;15455;53.376;-6.262;2023-05-15T09:35:44;4.68;;;0.68;;
28166;SDS011;15455;53.376;-6.262;2023-05-15T09:38:48;2.30;;;0.50;;
28166;SDS011;15455;53.376;-6.262;2023-05-15T09:41:41;4.53;;;0.52;;
28166;SDS011;15455;53.376;-6.262;2023-05-15T09:44:28;3.08;;;0.43;;
28166;SDS011;15455;53.376;-6.262;2023-05-15T09:47:13;5.93;;;0.50;;
28166;SDS011;15455;53.376;-6.262;2023-05-15T09:50:01;0.55;;;0.40;;
28166;SDS011;15455;53.376;-6.262;2023-05-15T09:52:47;1.98;;;0.38;;
28166;SDS011;15455;53.376;-6.262;2023-05-15T09:55:33;2.75;;;0.55;;
28166;SDS011;15455;53.376;-6.262;2023-05-15T09:58:20;3.70;;;0.50;;
28166;SDS011;15455;53.376;-6.262;2023-05-15T10:01:05;0.47;;;0.30;;
28166;SDS011;15455;53.376;-6.262;2023-05-15T10:04:02;1.73;;;0.47;;
28166;SDS011;15455;53.376;-6.262;2023-05-15T10:06:49;0.28;;;0.28;;
28166;SDS011;15455;53.376;-6.262;2023-05-15T10:09:34;5.03;;;0.60;;
28166;SDS011;15455;53.376;-6.262;2023-05-15T10:12:19;5.38;;;0.40;;
28166;SDS011;15455;53.376;-6.262;2023-05-15T10:15:07;4.30;;;0.40;;
28166;SDS011;15455;53.376;-6.262;2023-05-15T10:17:53;2.50;;;0.38;;
28166;SDS011;15455;53.376;-6.262;2023-05-15T10:20:39;1.00;;;0.45;;
28166;SDS011;15455;53.376;-6.262;2023-05-15T10:23:25;2.35;;;0.50;;
28166;SDS011;15455;53.376;-6.262;2023-05-15T10:26:57;5.07;;;0.40;;
28166;SDS011;15455;53.376;-6.262;2023-05-15T10:29:27;0.77;;;0.43;;
28166;SDS011;15455;53.376;-6.262;2023-05-15T10:32:12;3.00;;;0.40;;
28166;SDS011;15455;53.376;-6.262;2023-05-15T10:34:59;3.42;;;0.32;;
28166;SDS011;15455;53.376;-6.262;2023-05-15T10:37:47;1.02;;;0.57;;
28166;SDS011;15455;53.376;-6.262;2023-05-15T10:40:35;0.28;;;0.28;;
28166;SDS011;15455;53.376;-6.262;2023-05-15T10:43:22;5.75;;;0.60;;
28166;SDS011;15455;53.376;-6.262;2023-05-15T10:46:08;2.92;;;0.47;;
28166;SDS011;15455;53.376;-6.262;2023-05-15T10:48:56;5.28;;;0.80;;
28166;SDS011;15455;53.376;-6.262;2023-05-15T10:51:42;1.63;;;0.45;;
28166;SDS011;15455;53.376;-6.262;2023-05-15T10:54:28;0.55;;;0.35;;
28166;SDS011;15455;53.376;-6.262;2023-05-15T10:57:14;0.98;;;0.40;;
28166;SDS011;15455;53.376;-6.262;2023-05-15T11:00:00;1.25;;;0.47;;
28166;SDS011;15455;53.376;-6.262;2023-05-15T11:02:46;2.28;;;0.65;;
28166;SDS011;15455;53.376;-6.262;2023-05-15T11:06:19;6.80;;;0.40;;
28166;SDS011;15455;53.376;-6.262;2023-05-15T11:08:55;5.68;;;0.47;;
28166;SDS011;15455;53.376;-6.262;2023-05-15T11:12:07;3.15;;;0.50;;
28166;SDS011;15455;53.376;-6.262;2023-05-15T11:17:39;3.38;;;0.40;;
28166;SDS011;15455;53.376;-6.262;2023-05-15T11:23:38;1.20;;;0.30;;
28166;SDS011;15455;53.376;-6.262;2023-05-15T11:26:31;0.43;;;0.38;;
28166;SDS011;15455;53.376;-6.262;2023-05-15T11:29:17;1.45;;;0.25;;
28166;SDS011;15455;53.376;-6.262;2023-05-15T11:32:03;0.10;;;0.10;;
28166;SDS011;15455;53.376;-6.262;2023-05-15T11:35:29;0.55;;;0.20;;
28166;SDS011;15455;53.376;-6.262;2023-05-15T11:38:27;2.08;;;0.40;;
28166;SDS011;15455;53.376;-6.262;2023-05-15T11:41:16;2.20;;;0.28;;
28166;SDS011;15455;53.376;-6.262;2023-05-15T11:44:04;0.87;;;0.33;;
28166;SDS011;15455;53.376;-6.262;2023-05-15T11:46:49;2.00;;;0.50;;
28166;SDS011;15455;53.376;-6.262;2023-05-15T11:49:36;2.83;;;0.57;;
28166;SDS011;15455;53.376;-6.262;2023-05-15T11:52:22;2.33;;;0.50;;
28166;SDS011;15455;53.376;-6.262;2023-05-15T11:55:08;1.13;;;0.20;;
28166;SDS011;15455;53.376;-6.262;2023-05-15T11:57:55;3.25;;;0.30;;
28166;SDS011;15455;53.376;-6.262;2023-05-15T12:00:40;2.55;;;0.25;;
28166;SDS011;15455;53.376;-6.262;2023-05-15T12:03:31;3.20;;;0.47;;
28166;SDS011;15455;53.376;-6.262;2023-05-15T12:06:19;2.92;;;0.50;;
28166;SDS011;15455;53.376;-6.262;2023-05-15T12:09:04;1.25;;;0.40;;
28166;SDS011;15455;53.376;-6.262;2023-05-15T12:11:50;0.20;;;0.20;;
28166;SDS011;15455;53.376;-6.262;2023-05-15T12:14:38;2.90;;;0.60;;
28166;SDS011;15455;53.376;-6.262;2023-05-15T12:17:24;1.67;;;0.40;;
28166;SDS011;15455;53.376;-6.262;2023-05-15T12:20:10;2.38;;;0.50;;
28166;SDS011;15455;53.376;-6.262;2023-05-15T12:23:01;0.70;;;0.50;;
28166;SDS011;15455;53.376;-6.262;2023-05-15T12:25:48;3.25;;;0.40;;
28166;SDS011;15455;53.376;-6.262;2023-05-15T12:28:38;0.60;;;0.35;;
28166;SDS011;15455;53.376;-6.262;2023-05-15T12:31:24;7.32;;;0.70;;
28166;SDS011;15455;53.376;-6.262;2023-05-15T12:34:10;1.52;;;0.40;;
28166;SDS011;15455;53.376;-6.262;2023-05-15T12:36:56;1.13;;;0.28;;
28166;SDS011;15455;53.376;-6.262;2023-05-15T12:42:41;2.30;;;0.40;;
28166;SDS011;15455;53.376;-6.262;2023-05-15T12:45:28;5.50;;;0.30;;
28166;SDS011;15455;53.376;-6.262;2023-05-15T12:48:16;3.13;;;0.57;;
28166;SDS011;15455;53.376;-6.262;2023-05-15T12:51:03;4.03;;;0.40;;
28166;SDS011;15455;53.376;-6.262;2023-05-15T12:53:54;2.92;;;0.25;;
28166;SDS011;15455;53.376;-6.262;2023-05-15T12:56:41;1.20;;;0.30;;
28166;SDS011;15455;53.376;-6.262;2023-05-15T12:59:27;1.38;;;0.25;;
28166;SDS011;15455;53.376;-6.262;2023-05-15T13:02:13;0.98;;;0.20;;
28166;SDS011;15455;53.376;-6.262;2023-05-15T13:05:01;4.85;;;0.47;;
28166;SDS011;15455;53.376;-6.262;2023-05-15T13:07:48;2.28;;;0.40;;
28166;SDS011;15455;53.376;-6.262;2023-05-15T13:10:34;5.50;;;0.47;;
28166;SDS011;15455;53.376;-6.262;2023-05-15T13:13:21;1.17;;;0.30;;
28166;SDS011;15455;53.376;-6.262;2023-05-15T13:16:16;1.45;;;0.40;;
28166;SDS011;15455;53.376;-6.262;2023-05-15T13:19:05;2.65;;;0.65;;
28166;SDS011;15455;53.376;-6.262;2023-05-15T13:21:51;2.85;;;0.60;;
28166;SDS011;15455;53.376;-6.262;2023-05-15T13:24:36;2.63;;;0.50;;
28166;SDS011;15455;53.376;-6.262;2023-05-15T13:27:22;2.17;;;0.50;;
28166;SDS011;15455;53.376;-6.262;2023-05-15T13:30:07;1.05;;;0.28;;
28166;SDS011;15455;53.376;-6.262;2023-05-15T13:32:53;2.92;;;0.55;;
28166;SDS011;15455;53.376;-6.262;2023-05-15T13:35:40;1.60;;;0.40;;
28166;SDS011;15455;53.376;-6.262;2023-05-15T13:38:26;0.93;;;0.22;;
28166;SDS011;15455;53.376;-6.262;2023-05-15T13:41:12;6.03;;;0.57;;
28166;SDS011;15455;53.376;-6.262;2023-05-15T13:43:57;8.93;;;1.27;;
28166;SDS011;15455;53.376;-6.262;2023-05-15T13:46:42;0.73;;;0.55;;
28166;SDS011;15455;53.376;-6.262;2023-05-15T13:49:28;4.97;;;1.15;;
28166;SDS011;15455;53.376;-6.262;2023-05-15T13:52:14;3.13;;;0.45;;
28166;SDS011;15455;53.376;-6.262;2023-05-15T13:54:59;4.15;;;0.60;;
28166;SDS011;15455;53.376;-6.262;2023-05-15T13:57:45;2.58;;;0.70;;
28166;SDS011;15455;53.376;-6.262;2023-05-15T14:00:30;1.38;;;0.60;;
28166;SDS011;15455;53.376;-6.262;2023-05-15T14:03:16;1.55;;;0.45;;
28166;SDS011;15455;53.376;-6.262;2023-05-15T14:06:01;1.60;;;0.50;;
28166;SDS011;15455;53.376;-6.262;2023-05-15T14:08:47;3.25;;;0.63;;
28166;SDS011;15455;53.376;-6.262;2023-05-15T14:11:32;4.85;;;0.70;;
28166;SDS011;15455;53.376;-6.262;2023-05-15T14:14:18;4.03;;;0.60;;
28166;SDS011;15455;53.376;-6.262;2023-05-15T14:17:04;2.90;;;0.65;;
28166;SDS011;15455;53.376;-6.262;2023-05-15T14:19:49;6.55;;;0.80;;
28166;SDS011;15455;53.376;-6.262;2023-05-15T14:22:35;2.72;;;0.50;;
28166;SDS011;15455;53.376;-6.262;2023-05-15T14:25:22;5.82;;;0.57;;
28166;SDS011;15455;53.376;-6.262;2023-05-15T14:28:08;9.50;;;0.95;;
28166;SDS011;15455;53.376;-6.262;2023-05-15T14:30:53;5.20;;;0.70;;
28166;SDS011;15455;53.376;-6.262;2023-05-15T14:33:39;3.42;;;0.73;;
28166;SDS011;15455;53.376;-6.262;2023-05-15T14:36:24;3.75;;;0.70;;
28166;SDS011;15455;53.376;-6.262;2023-05-15T14:39:10;3.53;;;0.80;;
28166;SDS011;15455;53.376;-6.262;2023-05-15T14:41:56;3.15;;;0.60;;
28166;SDS011;15455;53.376;-6.262;2023-05-15T14:44:41;3.63;;;1.20;;
28166;SDS011;15455;53.376;-6.262;2023-05-15T14:47:27;3.80;;;0.55;;
28166;SDS011;15455;53.376;-6.262;2023-05-15T14:50:14;2.90;;;0.60;;
28166;SDS011;15455;53.376;-6.262;2023-05-15T14:52:59;6.53;;;0.80;;
28166;SDS011;15455;53.376;-6.262;2023-05-15T14:55:45;2.38;;;0.75;;
28166;SDS011;15455;53.376;-6.262;2023-05-15T14:58:30;1.95;;;0.50;;
28166;SDS011;15455;53.376;-6.262;2023-05-15T15:01:16;5.72;;;0.60;;
28166;SDS011;15455;53.376;-6.262;2023-05-15T15:04:01;8.98;;;0.43;;
28166;SDS011;15455;53.376;-6.262;2023-05-15T15:06:47;1.88;;;0.40;;
28166;SDS011;15455;53.376;-6.262;2023-05-15T15:09:33;2.75;;;0.40;;
28166;SDS011;15455;53.376;-6.262;2023-05-15T15:12:18;4.00;;;0.68;;
28166;SDS011;15455;53.376;-6.262;2023-05-15T15:15:05;0.50;;;0.20;;
28166;SDS011;15455;53.376;-6.262;2023-05-15T15:17:51;1.52;;;0.40;;
28166;SDS011;15455;53.376;-6.262;2023-05-15T15:20:36;3.85;;;0.47;;
28166;SDS011;15455;53.376;-6.262;2023-05-15T15:23:22;2.92;;;0.60;;
28166;SDS011;15455;53.376;-6.262;2023-05-15T15:26:07;0.60;;;0.30;;
28166;SDS011;15455;53.376;-6.262;2023-05-15T15:28:53;3.55;;;0.98;;
28166;SDS011;15455;53.376;-6.262;2023-05-15T15:31:39;2.67;;;0.40;;
28166;SDS011;15455;53.376;-6.262;2023-05-15T15:34:24;2.40;;;0.50;;
28166;SDS011;15455;53.376;-6.262;2023-05-15T15:37:11;6.45;;;0.70;;
28166;SDS011;15455;53.376;-6.262;2023-05-15T15:39:56;0.73;;;0.28;;
28166;SDS011;15455;53.376;-6.262;2023-05-15T15:42:42;2.88;;;0.30;;
28166;SDS011;15455;53.376;-6.262;2023-05-15T15:45:28;2.40;;;0.47;;
28166;SDS011;15455;53.376;-6.262;2023-05-15T15:48:13;4.40;;;0.70;;
28166;SDS011;15455;53.376;-6.262;2023-05-15T15:50:58;2.13;;;0.50;;
28166;SDS011;15455;53.376;-6.262;2023-05-15T15:53:44;1.10;;;0.30;;
28166;SDS011;15455;53.376;-6.262;2023-05-15T15:56:29;1.05;;;0.55;;
28166;SDS011;15455;53.376;-6.262;2023-05-15T15:59:14;2.78;;;0.50;;
28166;SDS011;15455;53.376;-6.262;2023-05-15T16:02:00;2.50;;;0.40;;
28166;SDS011;15455;53.376;-6.262;2023-05-15T16:04:49;2.25;;;0.40;;
28166;SDS011;15455;53.376;-6.262;2023-05-15T16:07:34;0.40;;;0.30;;
28166;SDS011;15455;53.376;-6.262;2023-05-15T16:10:20;4.25;;;0.63;;
28166;SDS011;15455;53.376;-6.262;2023-05-15T16:13:06;0.98;;;0.50;;
28166;SDS011;15455;53.376;-6.262;2023-05-15T16:15:51;4.50;;;0.60;;
28166;SDS011;15455;53.376;-6.262;2023-05-15T16:18:37;2.75;;;0.63;;
28166;SDS011;15455;53.376;-6.262;2023-05-15T16:21:22;0.82;;;0.68;;
28166;SDS011;15455;53.376;-6.262;2023-05-15T16:24:07;5.38;;;0.52;;
28166;SDS011;15455;53.376;-6.262;2023-05-15T16:26:53;1.55;;;0.50;;
28166;SDS011;15455;53.376;-6.262;2023-05-15T16:29:40;6.55;;;0.60;;
28166;SDS011;15455;53.376;-6.262;2023-05-15T16:32:25;3.78;;;0.40;;
28166;SDS011;15455;53.376;-6.262;2023-05-15T16:35:11;2.20;;;0.30;;
28166;SDS011;15455;53.376;-6.262;2023-05-15T16:37:57;4.07;;;0.70;;
28166;SDS011;15455;53.376;-6.262;2023-05-15T16:40:42;6.00;;;0.43;;
28166;SDS011;15455;53.376;-6.262;2023-05-15T16:43:28;3.45;;;0.50;;
28166;SDS011;15455;53.376;-6.262;2023-05-15T16:46:14;4.70;;;0.85;;
28166;SDS011;15455;53.376;-6.262;2023-05-15T16:48:59;3.45;;;0.80;;
28166;SDS011;15455;53.376;-6.262;2023-05-15T16:51:45;1.77;;;0.32;;
28166;SDS011;15455;53.376;-6.262;2023-05-15T16:54:30;3.20;;;0.52;;